Big Bear Station Historical Data
Daily Summary for September 11, 2017 Units:  English    Metric   Both
« Previous Day
Next Day »
Daily Weekly Monthly Yearly Custom
  High: Low: Average:
Temperature: 79.3 °F 51.3 °F 63.9 °F
Dew Point: 57.1 °F 46.6 °F 51.5 °F
Humidity: 87 % 38 % 66 %
Wind Speed: 7.8 mph 0.0 mph 1.2 mph
Wind Gust: -999.0 mph - -
Wind:- - SSW
Pressure: 30.30 in 30.26 in -
Precipitation: 0.00 in    
Historical Graphs
 
 
Tabular Data for September 11, 2017
Time Temperature Dew Point Pressure Wind Wind Speed Wind Gust Humidity Rainfall Rate (Hourly)
00:00 52.7 °F 48.6 °F 30.26 in Calm   -999.0 mph 86 % 0 in
00:15 52.2 °F 48.1 °F 30.26 in Calm   -999.0 mph 86 % 0 in
00:30 52.0 °F 47.9 °F 30.26 in Calm   -999.0 mph 86 % 0 in
00:45 52.2 °F 48.4 °F 30.27 in Calm   -999.0 mph 87 % 0 in
01:01 52.0 °F 47.6 °F 30.27 in Calm   -999.0 mph 85 % 0 in
01:16 51.3 °F 47.3 °F 30.27 in Calm   -999.0 mph 86 % 0 in
01:31 51.3 °F 47.3 °F 30.27 in Calm   -999.0 mph 86 % 0 in
01:46 51.3 °F 47.6 °F 30.26 in Calm   -999.0 mph 87 % 0 in
02:01 51.8 °F 48.1 °F 30.26 in Calm   -999.0 mph 87 % 0 in
02:17 52.5 °F 48.1 °F 30.26 in Calm   -999.0 mph 85 % 0 in
02:32 53.1 °F 48.7 °F 30.27 in Calm   -999.0 mph 85 % 0 in
02:47 53.4 °F 48.7 °F 30.27 in Calm   -999.0 mph 84 % 0 in
03:02 54.0 °F 47.6 °F 30.26 in Calm   -999.0 mph 79 % 0 in
03:17 54.0 °F 47.3 °F 30.27 in Calm   -999.0 mph 78 % 0 in
03:33 54.7 °F 46.6 °F 30.26 in Calm   -999.0 mph 74 % 0 in
03:48 55.4 °F 46.9 °F 30.26 in South 2.2 mph -999.0 mph 73 % 0 in
04:03 55.2 °F 47.4 °F 30.27 in SSE 1.7 mph -999.0 mph 75 % 0 in
04:18 55.2 °F 47.4 °F 30.27 in SSE 1.1 mph -999.0 mph 75 % 0 in
04:33 54.9 °F 47.1 °F 30.27 in Calm   -999.0 mph 75 % 0 in
04:49 54.9 °F 47.5 °F 30.27 in Calm   -999.0 mph 76 % 0 in
05:04 55.0 °F 48.3 °F 30.27 in Calm   -999.0 mph 78 % 0 in
05:19 55.4 °F 49.3 °F 30.27 in South 1.7 mph -999.0 mph 80 % 0 in
05:34 55.6 °F 50.5 °F 30.27 in Calm   -999.0 mph 83 % 0 in
05:50 55.4 °F 50.6 °F 30.28 in Calm   -999.0 mph 84 % 0 in
06:05 55.8 °F 50.7 °F 30.28 in Calm   -999.0 mph 83 % 0 in
06:20 55.4 °F 50.6 °F 30.28 in Calm   -999.0 mph 84 % 0 in
06:35 55.6 °F 50.8 °F 30.28 in Calm   -999.0 mph 84 % 0 in
06:51 56.1 °F 51.3 °F 30.28 in SSW 2.7 mph -999.0 mph 84 % 0 in
07:06 56.8 °F 51.4 °F 30.28 in Calm   -999.0 mph 82 % 0 in
07:21 57.2 °F 51.8 °F 30.28 in South 1.7 mph -999.0 mph 82 % 0 in
07:37 57.7 °F 52.2 °F 30.28 in SSW 1.7 mph -999.0 mph 82 % 0 in
07:52 58.6 °F 52.8 °F 30.28 in Calm   -999.0 mph 81 % 0 in
08:07 59.0 °F 52.8 °F 30.28 in Calm   -999.0 mph 80 % 0 in
08:22 61.3 °F 54.7 °F 30.28 in Calm   -999.0 mph 79 % 0 in
08:37 63.3 °F 54.9 °F 30.29 in Calm   -999.0 mph 74 % 0 in
08:53 64.6 °F 56.5 °F 30.29 in South 1.1 mph -999.0 mph 75 % 0 in
09:08 66.2 °F 55.7 °F 30.29 in East 2.7 mph -999.0 mph 69 % 0 in
09:24 67.1 °F 54.9 °F 30.29 in East 2.2 mph -999.0 mph 65 % 0 in
09:39 69.1 °F 54.2 °F 30.29 in NNW 2.7 mph -999.0 mph 59 % 0 in
09:54 70.2 °F 54.3 °F 30.29 in West 2.2 mph -999.0 mph 57 % 0 in
10:09 71.2 °F 54.2 °F 30.29 in SE 2.7 mph -999.0 mph 55 % 0 in
10:24 71.8 °F 54.8 °F 30.29 in NW 2.7 mph -999.0 mph 55 % 0 in
10:40 73.2 °F 56.1 °F 30.30 in NNW 2.2 mph -999.0 mph 55 % 0 in
10:55 73.9 °F 55.2 °F 30.30 in WNW 1.1 mph -999.0 mph 52 % 0 in
11:10 76.1 °F 55.0 °F 30.30 in Calm   -999.0 mph 48 % 0 in
11:25 76.3 °F 55.7 °F 30.30 in NNW 3.7 mph -999.0 mph 49 % 0 in
11:41 76.5 °F 54.2 °F 30.29 in East 2.7 mph -999.0 mph 46 % 0 in
11:56 77.7 °F 53.4 °F 30.29 in SSE 4.7 mph -999.0 mph 43 % 0 in
12:11 78.1 °F 54.4 °F 30.29 in ENE 1.1 mph -999.0 mph 44 % 0 in
12:26 78.8 °F 53.8 °F 30.29 in West 2.2 mph -999.0 mph 42 % 0 in
12:41 78.3 °F 54.0 °F 30.29 in East 1.7 mph -999.0 mph 43 % 0 in
12:57 79.0 °F 53.3 °F 30.28 in SSW 7.8 mph -999.0 mph 41 % 0 in
13:12 79.3 °F 54.2 °F 30.28 in NNE 4.7 mph -999.0 mph 42 % 0 in
13:27 79.0 °F 57.1 °F 30.28 in North 3.2 mph -999.0 mph 47 % 0 in
13:43 77.4 °F 53.2 °F 30.28 in SW 2.7 mph -999.0 mph 43 % 0 in
13:58 75.2 °F 55.3 °F 30.27 in Calm   -999.0 mph 50 % 0 in
14:13 75.7 °F 55.7 °F 30.27 in South 3.7 mph -999.0 mph 50 % 0 in
14:28 76.5 °F 56.5 °F 30.27 in WSW 3.7 mph -999.0 mph 50 % 0 in
14:44 74.8 °F 56.0 °F 30.27 in NNW 3.7 mph -999.0 mph 52 % 0 in
14:59 77.0 °F 56.4 °F 30.27 in ESE 1.1 mph -999.0 mph 49 % 0 in
15:14 75.9 °F 55.9 °F 30.26 in WNW 4.7 mph -999.0 mph 50 % 0 in
15:45 75.9 °F 54.8 °F 30.26 in North 4.7 mph -999.0 mph 48 % 0 in
16:00 73.9 °F 54.6 °F 30.26 in SSW 1.7 mph -999.0 mph 51 % 0 in
16:15 74.5 °F 54.1 °F 30.26 in Calm   -999.0 mph 49 % 0 in
16:30 73.8 °F 53.5 °F 30.26 in WNW 2.2 mph -999.0 mph 49 % 0 in
16:46 72.7 °F 51.9 °F 30.26 in South 4.2 mph -999.0 mph 48 % 0 in
17:01 75.2 °F 51.8 °F 30.26 in West 2.2 mph -999.0 mph 44 % 0 in
17:16 76.3 °F 49.5 °F 30.26 in South 2.2 mph -999.0 mph 39 % 0 in
17:31 78.1 °F 50.4 °F 30.26 in South 4.2 mph -999.0 mph 38 % 0 in
17:47 73.4 °F 50.8 °F 30.26 in ENE 1.1 mph -999.0 mph 45 % 0 in
18:02 72.1 °F 51.3 °F 30.26 in South 1.7 mph -999.0 mph 48 % 0 in
18:17 70.3 °F 51.3 °F 30.26 in SSW 3.2 mph -999.0 mph 51 % 0 in
18:32 69.6 °F 51.7 °F 30.27 in Calm   -999.0 mph 53 % 0 in
18:47 68.4 °F 52.1 °F 30.26 in Calm   -999.0 mph 56 % 0 in
19:03 67.1 °F 52.3 °F 30.27 in Calm   -999.0 mph 59 % 0 in
19:18 65.3 °F 51.1 °F 30.27 in Calm   -999.0 mph 60 % 0 in
19:33 64.4 °F 50.2 °F 30.27 in Calm   -999.0 mph 60 % 0 in
19:48 63.3 °F 50.1 °F 30.27 in Calm   -999.0 mph 62 % 0 in
20:03 62.1 °F 50.2 °F 30.27 in Calm   -999.0 mph 65 % 0 in
20:19 61.2 °F 50.2 °F 30.28 in South 1.1 mph -999.0 mph 67 % 0 in
20:34 60.6 °F 50.4 °F 30.28 in Calm   -999.0 mph 69 % 0 in
20:49 59.9 °F 50.1 °F 30.28 in SSE 1.1 mph -999.0 mph 70 % 0 in
21:04 59.4 °F 50.0 °F 30.28 in Calm   -999.0 mph 71 % 0 in
21:20 58.8 °F 49.8 °F 30.28 in Calm   -999.0 mph 72 % 0 in
21:35 58.1 °F 49.5 °F 30.28 in Calm   -999.0 mph 73 % 0 in
21:50 57.6 °F 50.4 °F 30.28 in Calm   -999.0 mph 77 % 0 in
22:05 57.2 °F 49.7 °F 30.29 in Calm   -999.0 mph 76 % 0 in
22:21 57.2 °F 49.7 °F 30.29 in Calm   -999.0 mph 76 % 0 in
22:36 56.8 °F 49.7 °F 30.29 in Calm   -999.0 mph 77 % 0 in
22:51 56.5 °F 49.7 °F 30.29 in Calm   -999.0 mph 78 % 0 in
23:06 56.3 °F 49.9 °F 30.29 in South 1.1 mph -999.0 mph 79 % 0 in
23:21 56.1 °F 49.7 °F 30.29 in Calm   -999.0 mph 79 % 0 in
23:37 56.1 °F 50.0 °F 30.28 in Calm   -999.0 mph 80 % 0 in
23:52 55.9 °F 50.2 °F 30.28 in Calm   -999.0 mph 81 % 0 in
Big Bear CA Weather
Compliments of Weather Underground - 1.5 mb